Airfield :
LOGIN :

Register | Disclaimer

   EN    FR    IT 

 










Legend :    VFR   Marginal VFR   IFR   Intensive IFR   Very Intensive IFR
Visi :
Ceiling :
>= 8 km
>= 3000ft
5 to 8 km
1000 to 3000 ft
1500m to 5 km
500 to 1000 ft
800 to 1500m
200 to 500 ft
< 800m
< 200 ft
Symbols :   Thunderstorms  Fog  Heavy snow  Heavy precipitations  Wind > 20 kt
SIGMETs :     Misc.  Thunderstorms  Icing  Turbulence  Mountain Waves  Volcanic Ashes







- Airport Elevation : 236 ft
- IATA code : MMX


ESMS - Malmö Sturup

CURRENT METAR :
  • 182250Z 25015KT 9999 SCT015 BKN051 05/03 Q0998 R17/29//95

EXPIRED METARs :
  • 182220Z 25013KT 9999 SCT043 BKN078 05/03 Q0999 R17/29//95
  • 182150Z 26013KT 9999 SCT033 05/03 Q0999 R17/29//95
  • 182120Z 26014KT 9999 -RA BKN014 BKN040 05/04 Q0999 R17/29//95
  • 182050Z 26012KT 9999 -RA BKN014 OVC019 05/03 Q1000 R17/29//95
  • 182020Z 26014KT 9999 BKN015 BKN019 OVC027 05/03 Q1000 R17/29//95

TAF TAF ESMS
Valid from the 18 at 18:00 until the 19 at 18:00 UTC


181716Z 1818/1918 29012KT 9999 SCT030
TEMPO 1818/1918 SHRA BKN010 SCT020CB
No reported NOTAMs for that airfield.



MET'MAP, your aeronautical weather chart ! - Copyright ORBIFLY December 2007 - Disclaimer

ORBIFLY MET'MAP TEAM :

Programming & Development : Alexandra Zaïnal
Concept & Development : Baudouin d'Aumeries
Co-Development & Prog : Marc-Olivier Méhu
Technical & hardware support : Manuel Goepfert

Contact : metmap@orbifly.com




SOURCES & CREDITS :

   NOAA